Time;durP1;ratioP1;P1;durP2;ratioP2;P2;SDS_P1;SDS_P2;PMS_P1;PMS_P2;Temp;Humidity;BMP_temperature;BMP_pressure;BME280_temperature;BME280_humidity;BME280_pressure;Samples;Min_cycle;Max_cycle;Signal;HPM_P1;HPM_P2
2023/12/26 13:57:02;;;;;;;;;;;;;;;12.31;47.26;97318.22;4223159;28;5857;-66
2023/12/26 13:59:42;;;;;;;;;;;;;;;12.32;47.14;97311.09;4226998;28;5622;-75
2023/12/26 14:01:46;;;;;;;;;;;;;;;12.32;46.74;97298.66;4226308;27;5835;-77
2023/12/26 14:03:49;;;;;;;;;;;;;;;12.36;46.92;97304.41;4220882;27;5747;-72
2023/12/26 14:05:53;;;;;;;;;;;;;;;12.37;47.30;97295.44;4222501;27;5713;-73
2023/12/26 14:07:57;;;;;;;;;;;;;;;12.38;47.36;97291.78;4222547;28;5700;-67
2023/12/26 14:10:01;;;;;;;;;;;;;;;12.40;47.86;97287.09;4229131;28;5582;-64
2023/12/26 14:12:06;;;;;;;;;;;;;;;12.40;47.67;97287.91;4225845;28;5593;-62
2023/12/26 14:14:08;;;;;;;;;;;;;;;12.42;47.96;97293.00;4231505;28;5657;-63
2023/12/26 14:16:11;;;;;;;;;;;;;;;12.43;47.92;97289.34;4231318;27;5610;-67
2023/12/26 14:18:18;;;;;;;;;;;;;;;12.43;48.14;97284.88;4223348;27;5875;-67
2023/12/26 14:20:21;;;;;;;;;;;;;;;12.45;48.13;97288.13;4222079;27;5669;-68
2023/12/26 14:22:25;;;;;;;;;;;;;;;12.47;48.36;97285.31;4223579;28;5587;-70
2023/12/26 14:24:28;;;;;;;;;;;;;;;12.48;48.08;97279.00;4224771;28;5696;-68
2023/12/26 14:26:33;;;;;;;;;;;;;;;12.49;48.10;97283.28;4230052;28;5079;-68
2023/12/26 14:29:14;;;;;;;;;;;;;;;12.50;48.17;97287.56;4227131;28;7717;-70
2023/12/26 14:31:54;;;;;;;;;;;;;;;12.54;48.27;97280.88;4230374;27;5789;-66
2023/12/26 14:34:34;;;;;;;;;;;;;;;12.53;48.51;97279.22;4223173;27;5717;-65
2023/12/26 14:37:15;;;;;;;;;;;;;;;12.55;48.52;97287.81;4227110;28;5956;-68
2023/12/26 14:39:55;;;;;;;;;;;;;;;12.53;48.56;97282.69;4224654;28;5714;-73
2023/12/26 14:42:35;;;;;;;;;;;;;;;12.56;48.56;97283.31;4224675;28;5586;-66
2023/12/26 14:44:40;;;;;;;;;;;;;;;12.56;48.52;97284.13;4219076;27;5765;-68
2023/12/26 14:46:43;;;;;;;;;;;;;;;12.56;48.89;97292.09;4220824;28;5814;-70
2023/12/26 14:48:46;;;;;;;;;;;;;;;12.56;48.70;97294.75;4228577;28;5777;-69
2023/12/26 14:50:48;;;;;;;;;;;;;;;12.55;49.17;97293.09;4227603;27;5694;-68
2023/12/26 14:52:51;;;;;;;;;;;;;;;12.57;49.04;97301.72;4227795;28;5871;-68
2023/12/26 14:54:53;;;;;;;;;;;;;;;12.59;49.32;97299.69;4224665;27;5695;-67
2023/12/26 14:57:33;;;;;;;;;;;;;;;12.59;48.99;97298.88;4230998;27;5598;-68
2023/12/26 15:00:14;;;;;;;;;;;;;;;12.59;49.34;97294.38;4227072;28;5705;-70
2023/12/26 15:02:18;;;;;;;;;;;;;;;12.57;49.51;97295.56;4230619;28;5903;-68
2023/12/26 15:04:20;;;;;;;;;;;;;;;12.55;49.61;97290.47;4216539;28;7316;-67
2023/12/26 15:06:23;;;;;;;;;;;;;;;12.53;49.52;97295.13;4223334;28;5779;-69
2023/12/26 15:08:26;;;;;;;;;;;;;;;12.51;49.90;97295.34;4229068;28;5692;-70
2023/12/26 15:10:29;;;;;;;;;;;;;;;12.52;50.01;97293.50;4228415;27;5595;-72
2023/12/26 15:12:32;;;;;;;;;;;;;;;12.51;49.99;97292.69;4225981;28;5846;-71
2023/12/26 15:14:35;;;;;;;;;;;;;;;12.52;50.42;97296.16;4226443;28;5608;-68
2023/12/26 15:16:46;;;;;;;;;;;;;;;12.51;50.51;97295.34;4221218;27;5598;-66
2023/12/26 15:18:50;;;;;;;;;;;;;;;12.52;50.55;97298.81;4217532;27;5796;-66
2023/12/26 15:20:54;;;;;;;;;;;;;;;12.51;50.41;97300.63;4219968;28;5600;-65
2023/12/26 15:22:57;;;;;;;;;;;;;;;12.51;50.71;97300.63;4223465;28;5735;-67
2023/12/26 15:25:00;;;;;;;;;;;;;;;12.51;50.67;97297.16;4231797;28;5602;-66
2023/12/26 15:27:04;;;;;;;;;;;;;;;12.51;50.82;97300.63;4231249;28;5673;-67
2023/12/26 15:29:07;;;;;;;;;;;;;;;12.50;50.57;97299.00;4228352;27;5756;-68
2023/12/26 15:31:14;;;;;;;;;;;;;;;12.49;50.67;97294.72;4221211;27;5565;-68
2023/12/26 15:33:20;;;;;;;;;;;;;;;12.48;50.67;97292.25;4216552;28;5835;-70
2023/12/26 15:35:24;;;;;;;;;;;;;;;12.46;51.00;97304.91;4231198;28;5777;-69
2023/12/26 15:37:27;;;;;;;;;;;;;;;12.44;51.07;97301.59;4231711;28;5800;-66
2023/12/26 15:39:30;;;;;;;;;;;;;;;12.45;50.91;97314.66;4228561;27;6663;-66
2023/12/26 15:41:33;;;;;;;;;;;;;;;12.45;51.08;97311.19;4224896;27;5616;-69
2023/12/26 15:43:35;;;;;;;;;;;;;;;12.46;50.78;97315.50;4227716;27;5833;-68
2023/12/26 15:45:38;;;;;;;;;;;;;;;12.45;50.83;97319.13;4218004;27;5729;-69
2023/12/26 15:47:41;;;;;;;;;;;;;;;12.43;50.92;97323.81;4225584;27;5717;-69
2023/12/26 15:49:45;;;;;;;;;;;;;;;12.42;50.75;97319.53;4231378;27;5328;-69
2023/12/26 15:51:49;;;;;;;;;;;;;;;12.42;51.11;97316.88;4231770;27;7686;-65
2023/12/26 15:53:52;;;;;;;;;;;;;;;12.43;50.91;97326.47;4233516;27;5610;-63
2023/12/26 15:55:55;;;;;;;;;;;;;;;12.43;51.17;97323.81;4229901;27;5692;-64
2023/12/26 15:57:58;;;;;;;;;;;;;;;12.44;50.84;97322.81;4231390;27;5708;-67
2023/12/26 16:00:01;;;;;;;;;;;;;;;12.43;50.73;97322.00;4234987;28;5705;-67
2023/12/26 16:02:05;;;;;;;;;;;;;;;12.43;50.83;97318.50;4227018;28;5867;-64
2023/12/26 16:04:07;;;;;;;;;;;;;;;12.43;50.54;97305.25;4230278;27;5931;-65
2023/12/26 16:06:17;;;;;;;;;;;;;;;12.41;50.45;97297.50;4223001;27;5645;-64
2023/12/26 16:08:22;;;;;;;;;;;;;;;12.41;50.34;97300.16;4230708;28;5108;-64
2023/12/26 16:10:25;;;;;;;;;;;;;;;12.39;50.35;97304.84;4235527;28;5689;-67
2023/12/26 16:12:28;;;;;;;;;;;;;;;12.38;50.20;97303.19;4224473;28;5605;-63
2023/12/26 16:14:30;;;;;;;;;;;;;;;12.38;50.13;97303.19;4228494;27;5728;-65
2023/12/26 16:16:33;;;;;;;;;;;;;;;12.38;49.71;97307.69;4229052;27;5076;-65
2023/12/26 16:18:38;;;;;;;;;;;;;;;12.38;49.75;97315.63;4229054;28;5602;-64
2023/12/26 16:20:43;;;;;;;;;;;;;;;12.38;49.42;97318.28;4219160;27;5609;-64
2023/12/26 16:22:46;;;;;;;;;;;;;;;12.37;49.28;97321.94;4230644;28;5827;-67
2023/12/26 16:24:50;;;;;;;;;;;;;;;12.38;49.38;97318.28;4229819;27;6733;-62
2023/12/26 16:26:53;;;;;;;;;;;;;;;12.36;49.18;97307.06;4222956;27;5688;-63
2023/12/26 16:28:55;;;;;;;;;;;;;;;12.35;49.17;97308.06;4230063;27;5715;-63
2023/12/26 16:31:00;;;;;;;;;;;;;;;12.37;48.64;97308.69;4227084;27;5613;-62
2023/12/26 16:33:04;;;;;;;;;;;;;;;12.35;48.93;97298.28;4222954;27;5687;-67
2023/12/26 16:35:08;;;;;;;;;;;;;;;12.36;48.48;97309.72;4226936;27;5847;-64
2023/12/26 16:37:11;;;;;;;;;;;;;;;12.35;48.34;97314.19;4229266;28;5793;-65
2023/12/26 16:39:13;;;;;;;;;;;;;;;12.35;48.48;97308.88;4228264;28;5699;-66
2023/12/26 16:41:18;;;;;;;;;;;;;;;12.34;48.19;97311.72;4219847;28;5729;-69
2023/12/26 16:43:20;;;;;;;;;;;;;;;12.35;48.03;97316.03;4223156;28;5675;-65
2023/12/26 16:45:24;;;;;;;;;;;;;;;12.35;47.65;97316.84;4223815;27;5843;-64
2023/12/26 16:47:27;;;;;;;;;;;;;;;12.33;47.64;97321.50;4228652;28;5601;-62
2023/12/26 16:49:30;;;;;;;;;;;;;;;12.32;47.38;97325.16;4234213;27;5711;-62
2023/12/26 16:51:35;;;;;;;;;;;;;;;12.32;47.52;97329.63;4230360;28;5788;-63
2023/12/26 16:53:39;;;;;;;;;;;;;;;12.30;47.17;97337.78;4233737;27;5878;-65
2023/12/26 16:55:42;;;;;;;;;;;;;;;12.28;47.22;97336.34;4224360;28;5830;-65
2023/12/26 16:57:47;;;;;;;;;;;;;;;12.27;47.07;97337.34;4224386;28;5608;-63
2023/12/26 16:59:50;;;;;;;;;;;;;;;12.21;46.87;97337.09;4232242;27;5835;-64
2023/12/26 17:01:54;;;;;;;;;;;;;;;12.19;46.88;97344.41;4222347;27;5621;-63
2023/12/26 17:03:56;;;;;;;;;;;;;;;12.18;46.93;97340.13;4222943;28;5682;-62
2023/12/26 17:06:01;;;;;;;;;;;;;;;12.16;46.71;97342.16;4230901;28;5586;-63
2023/12/26 17:08:05;;;;;;;;;;;;;;;12.15;46.54;97356.41;4232777;28;5589;-66
2023/12/26 17:10:09;;;;;;;;;;;;;;;12.14;46.77;97346.84;4226227;28;5813;-64
2023/12/26 17:12:12;;;;;;;;;;;;;;;12.13;46.12;97344.38;4233526;28;5720;-66
2023/12/26 17:14:17;;;;;;;;;;;;;;;12.13;46.43;97350.50;4233668;28;5589;-66
2023/12/26 17:16:19;;;;;;;;;;;;;;;12.11;46.16;97347.19;4221569;27;5597;-77
2023/12/26 17:18:23;;;;;;;;;;;;;;;12.09;46.36;97349.22;4232264;27;5601;-74
2023/12/26 17:20:26;;;;;;;;;;;;;;;12.10;46.27;97352.69;4226925;28;5684;-67
2023/12/26 17:22:30;;;;;;;;;;;;;;;12.07;46.26;97345.94;4225623;28;5705;-72
2023/12/26 17:24:32;;;;;;;;;;;;;;;12.06;46.08;97343.47;4228324;28;5636;-72
2023/12/26 17:26:35;;;;;;;;;;;;;;;12.05;46.19;97347.97;4228032;28;5590;-72
2023/12/26 17:28:40;;;;;;;;;;;;;;;12.05;46.09;97349.78;4209270;28;5775;-72
2023/12/26 17:30:44;;;;;;;;;;;;;;;12.04;46.12;97354.28;4226381;27;5621;-72
2023/12/26 17:32:48;;;;;;;;;;;;;;;12.05;46.03;97363.84;4228754;28;5598;-70
2023/12/26 17:34:52;;;;;;;;;;;;;;;12.03;46.13;97360.59;4223950;27;5608;-68
2023/12/26 17:36:54;;;;;;;;;;;;;;;12.03;46.25;97368.53;4218093;28;6445;-84
2023/12/26 17:38:57;;;;;;;;;;;;;;;12.01;45.98;97359.13;4221534;28;5860;-70
2023/12/26 17:41:00;;;;;;;;;;;;;;;12.02;46.24;97361.59;4227541;27;5598;-74
2023/12/26 17:43:04;;;;;;;;;;;;;;;12.01;46.35;97354.66;4233710;28;5638;-73
2023/12/26 17:45:07;;;;;;;;;;;;;;;12.00;45.96;97353.00;4233773;28;5752;-78
2023/12/26 17:47:12;;;;;;;;;;;;;;;12.01;45.89;97359.13;4228062;28;5590;-76
2023/12/26 17:49:14;;;;;;;;;;;;;;;12.00;46.31;97360.94;4232770;28;5816;-78
2023/12/26 17:51:18;;;;;;;;;;;;;;;11.99;46.25;97363.78;4226428;28;5605;-78
2023/12/26 17:53:21;;;;;;;;;;;;;;;12.00;45.99;97371.53;4224878;27;5734;-74
2023/12/26 17:55:24;;;;;;;;;;;;;;;11.97;45.76;97360.50;4230052;27;5610;-71
2023/12/26 17:57:28;;;;;;;;;;;;;;;11.97;45.61;97374.56;4229560;27;5792;-70
2023/12/26 17:59:31;;;;;;;;;;;;;;;11.95;45.58;97384.53;4227063;28;5611;-72
2023/12/26 18:01:34;;;;;;;;;;;;;;;11.93;46.05;97395.31;4232506;27;6542;-67
2023/12/26 18:03:38;;;;;;;;;;;;;;;11.93;45.66;97394.50;4222639;27;5681;-69
2023/12/26 18:05:43;;;;;;;;;;;;;;;11.94;45.57;97390.84;4232101;28;5598;-67
2023/12/26 18:07:47;;;;;;;;;;;;;;;11.94;45.49;97382.91;4232265;28;5689;-66
2023/12/26 18:09:49;;;;;;;;;;;;;;;11.94;45.76;97380.25;4228573;27;5816;-68
2023/12/26 18:11:52;;;;;;;;;;;;;;;11.94;45.38;97386.38;4220899;27;5598;-80
2023/12/26 18:13:55;;;;;;;;;;;;;;;11.93;45.48;97373.31;4219212;27;5198;-75
2023/12/26 18:15:58;;;;;;;;;;;;;;;11.93;45.40;97373.31;4223536;27;7687;-75
2023/12/26 18:18:04;;;;;;;;;;;;;;;11.91;45.32;97372.69;4229278;28;5605;-75
2023/12/26 18:20:11;;;;;;;;;;;;;;;11.92;45.63;97369.03;4234465;28;5614;-75
2023/12/26 18:22:15;;;;;;;;;;;;;;;11.92;45.69;97371.66;4222907;27;6500;-75
2023/12/26 18:24:18;;;;;;;;;;;;;;;11.91;45.70;97377.97;4225237;27;5696;-75
2023/12/26 18:26:21;;;;;;;;;;;;;;;11.91;45.60;97381.44;4228384;27;5685;-75
2023/12/26 18:28:24;;;;;;;;;;;;;;;11.91;45.71;97380.63;4227182;27;6089;-73
2023/12/26 18:30:27;;;;;;;;;;;;;;;11.91;45.41;97396.53;4220240;28;5699;-73
2023/12/26 18:32:31;;;;;;;;;;;;;;;11.89;45.87;97394.06;4221196;28;5657;-74
2023/12/26 18:34:34;;;;;;;;;;;;;;;11.90;45.73;97398.34;4231355;28;5962;-73
2023/12/26 18:36:39;;;;;;;;;;;;;;;11.88;45.64;97400.34;4224229;27;5874;-73
2023/12/26 18:38:42;;;;;;;;;;;;;;;11.86;45.57;97393.59;4224331;28;5631;-74
2023/12/26 18:40:45;;;;;;;;;;;;;;;11.81;45.31;97402.13;4221693;27;8493;-72
2023/12/26 18:42:48;;;;;;;;;;;;;;;11.81;45.45;97390.69;4232193;28;5602;-72
2023/12/26 18:44:52;;;;;;;;;;;;;;;11.82;45.69;97392.34;4230882;28;5874;-73
2023/12/26 18:46:55;;;;;;;;;;;;;;;11.82;45.47;97387.88;4221645;27;5598;-73
2023/12/26 18:48:58;;;;;;;;;;;;;;;11.81;45.68;97402.13;4233574;28;5630;-73
2023/12/26 18:51:02;;;;;;;;;;;;;;;11.82;45.33;97395.00;4232796;28;5587;-73
2023/12/26 18:53:06;;;;;;;;;;;;;;;11.82;45.73;97395.00;4227742;28;5663;-74
2023/12/26 18:55:10;;;;;;;;;;;;;;;11.82;45.72;97397.63;4227129;28;5601;-73
2023/12/26 18:57:13;;;;;;;;;;;;;;;11.83;45.46;97399.28;4231692;28;6227;-72
2023/12/26 18:59:17;;;;;;;;;;;;;;;11.82;45.48;97397.63;4228025;28;5703;-73
2023/12/26 19:01:21;;;;;;;;;;;;;;;11.82;45.56;97402.94;4221960;28;5605;-72
2023/12/26 19:03:24;;;;;;;;;;;;;;;11.82;45.40;97397.63;4222399;28;5780;-73
2023/12/26 19:05:27;;;;;;;;;;;;;;;11.80;45.68;97395.19;4226060;28;5604;-71
2023/12/26 19:07:30;;;;;;;;;;;;;;;11.78;45.54;97396.31;4220120;27;5614;-70
2023/12/26 19:09:35;;;;;;;;;;;;;;;11.74;45.54;97400.34;4220966;28;7009;-68
2023/12/26 19:11:39;;;;;;;;;;;;;;;11.72;45.49;97407.66;4230846;28;6552;-74
2023/12/26 19:13:42;;;;;;;;;;;;;;;11.72;45.32;97403.19;4230778;28;6261;-74
2023/12/26 19:15:45;;;;;;;;;;;;;;;11.73;45.46;97406.66;4224366;27;5668;-66
2023/12/26 19:17:48;;;;;;;;;;;;;;;11.73;45.56;97406.66;4228268;28;5748;-68
2023/12/26 19:19:52;;;;;;;;;;;;;;;11.72;45.43;97395.25;4223799;27;5602;-69
2023/12/26 19:21:56;;;;;;;;;;;;;;;11.72;45.61;97392.59;4228546;27;6283;-72
2023/12/26 19:24:00;;;;;;;;;;;;;;;11.74;45.50;97400.34;4231033;27;5617;-70
2023/12/26 19:26:04;;;;;;;;;;;;;;;11.72;45.42;97402.38;4233752;28;5602;-68
2023/12/26 19:28:07;;;;;;;;;;;;;;;11.73;45.39;97409.31;4229672;28;5700;-65
2023/12/26 19:30:12;;;;;;;;;;;;;;;11.71;45.27;97403.38;4231751;28;5665;-66
2023/12/26 19:32:15;;;;;;;;;;;;;;;11.70;45.32;97405.22;4230065;28;5677;-65
2023/12/26 19:34:18;;;;;;;;;;;;;;;11.70;45.55;97409.69;4236233;28;5126;-65
2023/12/26 19:36:21;;;;;;;;;;;;;;;11.69;45.32;97400.94;4226591;28;5808;-65
2023/12/26 19:38:24;;;;;;;;;;;;;;;11.69;45.34;97400.94;4226209;28;5700;-77
2023/12/26 19:40:28;;;;;;;;;;;;;;;11.69;45.09;97400.09;4229030;28;5593;-72
2023/12/26 19:42:32;;;;;;;;;;;;;;;11.67;45.52;97392.34;4231385;28;5598;-74
2023/12/26 19:44:36;;;;;;;;;;;;;;;11.65;45.29;97395.16;4233963;28;5602;-67
2023/12/26 19:46:40;;;;;;;;;;;;;;;11.63;45.27;97394.53;4230974;28;5710;-71
2023/12/26 19:48:43;;;;;;;;;;;;;;;11.61;45.38;97385.94;4229915;28;5613;-70
2023/12/26 19:50:47;;;;;;;;;;;;;;;11.60;45.39;97388.78;4229406;28;6295;-70
2023/12/26 19:52:49;;;;;;;;;;;;;;;11.58;45.08;97388.97;4231922;28;5628;-69
2023/12/26 19:54:52;;;;;;;;;;;;;;;11.56;45.44;97387.53;4219473;28;5617;-70
2023/12/26 19:56:55;;;;;;;;;;;;;;;11.55;45.36;97381.41;4221109;27;5714;-70
2023/12/26 19:58:59;;;;;;;;;;;;;;;11.56;45.15;97380.41;4220531;27;5949;-71
2023/12/26 20:01:02;;;;;;;;;;;;;;;11.55;45.28;97381.41;4222922;28;5680;-72
2023/12/26 20:03:06;;;;;;;;;;;;;;;11.55;45.12;97377.91;4228246;28;5601;-73
2023/12/26 20:05:24;;;;;;;;;;;;;;;11.54;45.01;97385.03;4228171;28;5825;-70
2023/12/26 20:07:28;;;;;;;;;;;;;;;11.52;45.18;97387.06;4221083;28;5613;-67
2023/12/26 20:09:32;;;;;;;;;;;;;;;11.51;45.21;97388.06;4231154;28;6544;-66
2023/12/26 20:11:40;;;;;;;;;;;;;;;11.49;45.15;97392.72;4231055;28;5701;-67
2023/12/26 20:13:44;;;;;;;;;;;;;;;11.48;45.04;97391.09;4221986;27;5783;-70
2023/12/26 20:15:50;;;;;;;;;;;;;;;11.48;45.08;97400.84;4226029;28;5616;-68
2023/12/26 20:17:53;;;;;;;;;;;;;;;11.45;45.11;97402.06;4225734;27;6436;-67
2023/12/26 20:19:57;;;;;;;;;;;;;;;11.45;45.17;97410.00;4223812;28;5808;-65
2023/12/26 20:22:00;;;;;;;;;;;;;;;11.45;45.21;97409.16;4230383;27;5797;-68
2023/12/26 20:24:04;;;;;;;;;;;;;;;11.44;44.87;97400.41;4231133;27;5650;-67
2023/12/26 20:26:08;;;;;;;;;;;;;;;11.42;45.01;97399.75;4235062;27;5769;-65
2023/12/26 20:28:09;;;;;;;;;;;;;;;11.39;44.55;97392.19;4230152;27;5840;-66
2023/12/26 20:30:12;;;;;;;;;;;;;;;11.38;45.02;97401.13;4225944;27;5883;-68
2023/12/26 20:32:17;;;;;;;;;;;;;;;11.36;44.57;97401.31;4229776;27;5688;-67
2023/12/26 20:34:21;;;;;;;;;;;;;;;11.36;44.56;97411.09;4221462;28;5665;-68
2023/12/26 20:36:25;;;;;;;;;;;;;;;11.31;44.83;97403.66;4237679;27;6566;-68
2023/12/26 20:38:28;;;;;;;;;;;;;;;11.30;44.38;97404.69;4225910;28;5642;-68
2023/12/26 20:40:32;;;;;;;;;;;;;;;11.28;44.67;97406.69;4230280;28;5692;-68
2023/12/26 20:42:36;;;;;;;;;;;;;;;11.27;44.69;97404.22;4233732;28;5657;-69
2023/12/26 20:44:39;;;;;;;;;;;;;;;11.26;44.52;97402.59;4227294;28;6520;-70
2023/12/26 20:46:43;;;;;;;;;;;;;;;11.25;44.30;97411.53;4233747;28;5613;-69
2023/12/26 20:48:47;;;;;;;;;;;;;;;11.23;44.69;97405.63;4232058;27;5677;-68
2023/12/26 20:50:52;;;;;;;;;;;;;;;11.22;44.68;97407.44;4218051;27;5709;-67
2023/12/26 20:52:55;;;;;;;;;;;;;;;11.22;44.28;97418.03;4222657;28;5744;-67
2023/12/26 20:54:59;;;;;;;;;;;;;;;11.20;44.37;97420.00;4227188;28;5511;-68
2023/12/26 20:57:02;;;;;;;;;;;;;;;11.20;44.81;97424.47;4229227;28;5623;-66
2023/12/26 20:59:06;;;;;;;;;;;;;;;11.21;44.79;97426.13;4228919;28;5597;-66
2023/12/26 21:01:08;;;;;;;;;;;;;;;11.19;44.48;97428.94;4228080;27;6453;-68
2023/12/26 21:03:11;;;;;;;;;;;;;;;11.21;44.44;97431.41;4226877;28;5150;-67
2023/12/26 21:05:16;;;;;;;;;;;;;;;11.21;44.37;97432.25;4233860;27;5685;-66
2023/12/26 21:07:18;;;;;;;;;;;;;;;11.22;44.54;97427.78;4222971;27;5620;-68
2023/12/26 21:09:22;;;;;;;;;;;;;;;11.22;44.53;97430.44;4225790;28;5696;-67
2023/12/26 21:11:24;;;;;;;;;;;;;;;11.24;44.59;97428.44;4228674;28;5665;-68
2023/12/26 21:13:27;;;;;;;;;;;;;;;11.23;44.44;97435.53;4228434;28;5693;-67
2023/12/26 21:15:30;;;;;;;;;;;;;;;11.21;44.45;97431.41;4233355;28;5786;-67
2023/12/26 21:17:33;;;;;;;;;;;;;;;11.18;44.35;97445.00;4224760;27;5716;-67
2023/12/26 21:19:38;;;;;;;;;;;;;;;11.15;44.15;97440.09;4231383;28;5589;-68
2023/12/26 21:21:43;;;;;;;;;;;;;;;11.15;44.67;97443.56;4230324;28;5609;-68
2023/12/26 21:23:46;;;;;;;;;;;;;;;11.16;44.32;97439.09;4217648;27;5859;-67
2023/12/26 21:25:48;;;;;;;;;;;;;;;11.19;44.30;97441.38;4221531;28;7152;-64
2023/12/26 21:27:51;;;;;;;;;;;;;;;11.19;44.19;97449.31;4229569;28;5598;-65
2023/12/26 21:29:54;;;;;;;;;;;;;;;11.20;44.54;97448.31;4227497;28;5802;-65
2023/12/26 21:31:57;;;;;;;;;;;;;;;11.20;44.43;97449.13;4222595;28;5613;-65
2023/12/26 21:34:00;;;;;;;;;;;;;;;11.21;44.26;97460.53;4223829;28;5614;-65
2023/12/26 21:36:03;;;;;;;;;;;;;;;11.20;44.18;97457.06;4233490;28;5586;-69
2023/12/26 21:38:08;;;;;;;;;;;;;;;11.21;44.36;97457.88;4233927;28;5864;-68
2023/12/26 21:40:11;;;;;;;;;;;;;;;11.19;44.16;97449.31;4226814;28;5609;-70
2023/12/26 21:42:14;;;;;;;;;;;;;;;11.20;44.23;97451.75;4230628;28;5622;-65
2023/12/26 21:44:17;;;;;;;;;;;;;;;11.22;44.45;97451.59;4229120;28;5777;-68
2023/12/26 21:46:20;;;;;;;;;;;;;;;11.23;44.35;97454.06;4226599;28;5704;-67
2023/12/26 21:48:26;;;;;;;;;;;;;;;11.22;44.24;97462.19;4234189;28;5607;-73
2023/12/26 21:50:29;;;;;;;;;;;;;;;11.23;44.12;97463.84;4231285;28;5610;-75
2023/12/26 21:52:32;;;;;;;;;;;;;;;11.23;44.17;97463.84;4226457;28;5590;-74
2023/12/26 21:54:39;;;;;;;;;;;;;;;11.21;44.30;97469.31;4233879;28;5680;-74
2023/12/26 21:56:42;;;;;;;;;;;;;;;11.21;44.33;97468.47;4232542;28;5601;-74
2023/12/26 21:58:48;;;;;;;;;;;;;;;11.20;44.19;97472.13;4234358;28;5721;-70
2023/12/26 22:00:51;;;;;;;;;;;;;;;11.20;43.96;97475.59;4221225;28;5617;-66
2023/12/26 22:02:55;;;;;;;;;;;;;;;11.20;44.00;97483.53;4215003;27;5700;-67
2023/12/26 22:04:58;;;;;;;;;;;;;;;11.18;44.23;97476.78;4229149;28;6283;-69
2023/12/26 22:07:02;;;;;;;;;;;;;;;11.18;43.93;97484.72;4235064;27;6283;-70
2023/12/26 22:09:05;;;;;;;;;;;;;;;11.17;44.30;97475.13;4228922;28;6310;-71
2023/12/26 22:11:10;;;;;;;;;;;;;;;11.18;44.04;97482.06;4234176;28;5626;-70
2023/12/26 22:13:12;;;;;;;;;;;;;;;11.17;44.03;97477.78;4233279;27;5602;-70
2023/12/26 22:15:15;;;;;;;;;;;;;;;11.17;44.18;97473.31;4233001;28;5589;-70
2023/12/26 22:17:26;;;;;;;;;;;;;;;11.17;44.22;97472.47;4219744;28;5617;-70
2023/12/26 22:19:29;;;;;;;;;;;;;;;11.17;44.12;97472.47;4222522;28;5598;-71
2023/12/26 22:21:32;;;;;;;;;;;;;;;11.17;44.00;97480.41;4230420;27;5587;-70
2023/12/26 22:23:35;;;;;;;;;;;;;;;11.16;44.17;97484.06;4225547;28;6284;-68
2023/12/26 22:25:38;;;;;;;;;;;;;;;11.14;44.37;97483.44;4230818;27;5830;-68
2023/12/26 22:27:42;;;;;;;;;;;;;;;11.14;44.41;97472.84;4233974;28;5598;-68
2023/12/26 22:29:47;;;;;;;;;;;;;;;11.12;44.23;97473.03;4233065;28;5622;-68
2023/12/26 22:31:50;;;;;;;;;;;;;;;11.12;43.92;97480.16;4233704;28;5597;-68
2023/12/26 22:33:54;;;;;;;;;;;;;;;11.11;44.23;97478.50;4230284;27;5851;-69
2023/12/26 22:35:57;;;;;;;;;;;;;;;11.09;44.02;97490.06;4230717;27;5740;-70
2023/12/26 22:38:00;;;;;;;;;;;;;;;11.07;44.18;97489.44;4225371;28;5626;-68
2023/12/26 22:40:04;;;;;;;;;;;;;;;11.09;44.06;97497.19;4230393;28;5620;-68
2023/12/26 22:42:06;;;;;;;;;;;;;;;11.06;44.42;97500.19;4218357;28;6488;-67
2023/12/26 22:44:14;;;;;;;;;;;;;;;11.03;43.91;97497.91;4231482;28;5764;-69
2023/12/26 22:46:20;;;;;;;;;;;;;;;11.00;43.99;97501.75;4233739;28;5687;-69
2023/12/26 22:48:23;;;;;;;;;;;;;;;10.99;44.21;97497.47;4227328;27;5836;-68
2023/12/26 22:50:26;;;;;;;;;;;;;;;10.96;43.80;97507.56;4232914;28;5610;-68
